Garden City, Kansas
Current Conditions -  °F | °C
As of 9:54 AM on Saturday 20 Dec 2014 (Local Time) from KGCK Reporting Station
Clear Clear  
Wind Chill: -6°   Ceiling: Unl
Heat Index: -1°   Visibility: 7mi
Dew Point: -2°   Wind: 12mph
Humidity: 96%   Direction: 220°SW
Pressure: 30.06"   Gusts: NA
Location:  37.97°N, 100.87°W
Report Text: KGCK 201554Z 22010KT 7SM CLR M01/M02 A3006 RMK AO2 SLP202 T10111017
Loading
Personal Weather Stations






























Interactive Weather Map New forecast layout! Learn more

10-Day Weather Forecast

Advertisements
Track Severe Weather on mobile